Torreon International Airport
MMTC : now visible

Airfield :











YOU CAN JOIN US ON...

 
LOGIN :

Register | Disclaimer

   EN    FR    IT 

 









Legend :    VFR   Marginal VFR   IFR   Intensive IFR   Very Intensive IFR
Visi :
Ceiling :
>= 8 km
>= 3000ft
5 to 8 km
1000 to 3000 ft
1500m to 5 km
500 to 1000 ft
800 to 1500m
200 to 500 ft
< 800m
< 200 ft
Symbols :   Thunderstorms  Fog  Heavy snow  Heavy precipitations  Wind > 20 kt






- Airport Elevation : 3688 ft
- IATA code : TRC


MMTC - Torreon International

CURRENT METAR :
  • 280141Z 21013G23KT 4SM BKN020CB BKN070 OVC200 29/10 A2996 RMK 8/363 SC ARND BLDU

EXPIRED METARs :
  • 280059Z 23020G33KT 1/2SM BLDU BKN015CB BKN070 OVC200 31/10 A2992 RMK 8/363
  • 272342Z 36006KT 10SM SCT020TCU BKN200 35/06 A2989 RMK SLP991 57010 964 8/202 CB SW VC

TAF AMD TAF MMTC
Valid from the 28 at 02:00 until the 28 at 18:00 UTC


280207Z 2802/2818 21013G23KT 4SM BLDU BKN020CB BKN070 OVC200
FM280600 21008KT P6SM SKC
MMFR FIR / North America



MET'MAP, your aeronautical weather chart ! - Copyright ORBIFLY December 2007 - Disclaimer

ORBIFLY MET'MAP TEAM :

Programming & Development : Alexandra Zaïnal
Concept & original design : Baudouin d'Aumeries
Assistance for programming : Marc-Olivier Méhu
Technical & hardware support : Manuel Goepfert

Contact : metmap@orbifly.com




SOURCES & CREDITS :

   NOAA       Earth
Advisory